sensor_id;sensor_type;location;lat;lon;timestamp;P1;durP1;ratioP1;P2;durP2;ratioP2
9836;SDS011;4957;51.412;6.724;2024-03-23T00:55:37;0.00;;;0.00;;
9836;SDS011;4957;51.412;6.724;2024-03-23T00:58:03;0.73;;;0.40;;
9836;SDS011;4957;51.412;6.724;2024-03-23T01:00:29;0.00;;;0.00;;
9836;SDS011;4957;51.412;6.724;2024-03-23T01:02:55;0.00;;;0.00;;
9836;SDS011;4957;51.412;6.724;2024-03-23T01:05:20;0.00;;;0.00;;
9836;SDS011;4957;51.412;6.724;2024-03-23T01:07:46;0.10;;;0.10;;
9836;SDS011;4957;51.412;6.724;2024-03-23T01:10:12;0.00;;;0.00;;
9836;SDS011;4957;51.412;6.724;2024-03-23T01:12:37;0.00;;;0.00;;
9836;SDS011;4957;51.412;6.724;2024-03-23T01:15:03;0.00;;;0.00;;
9836;SDS011;4957;51.412;6.724;2024-03-23T01:17:29;0.00;;;0.00;;
9836;SDS011;4957;51.412;6.724;2024-03-23T01:19:55;0.00;;;0.00;;
9836;SDS011;4957;51.412;6.724;2024-03-23T01:22:21;0.00;;;0.00;;
9836;SDS011;4957;51.412;6.724;2024-03-23T01:24:46;0.10;;;0.10;;
9836;SDS011;4957;51.412;6.724;2024-03-23T01:27:12;0.00;;;0.00;;
9836;SDS011;4957;51.412;6.724;2024-03-23T01:29:38;0.10;;;0.10;;
9836;SDS011;4957;51.412;6.724;2024-03-23T01:32:04;0.00;;;0.00;;
9836;SDS011;4957;51.412;6.724;2024-03-23T01:34:30;0.00;;;0.00;;
9836;SDS011;4957;51.412;6.724;2024-03-23T01:36:55;0.10;;;0.10;;
9836;SDS011;4957;51.412;6.724;2024-03-23T01:39:21;0.00;;;0.00;;
9836;SDS011;4957;51.412;6.724;2024-03-23T01:41:47;0.00;;;0.00;;
9836;SDS011;4957;51.412;6.724;2024-03-23T01:44:12;0.00;;;0.00;;
9836;SDS011;4957;51.412;6.724;2024-03-23T01:46:38;0.00;;;0.00;;
9836;SDS011;4957;51.412;6.724;2024-03-23T01:49:04;0.00;;;0.00;;
9836;SDS011;4957;51.412;6.724;2024-03-23T01:51:30;0.03;;;0.03;;
9836;SDS011;4957;51.412;6.724;2024-03-23T01:53:58;0.00;;;0.00;;
9836;SDS011;4957;51.412;6.724;2024-03-23T01:56:28;0.00;;;0.00;;
9836;SDS011;4957;51.412;6.724;2024-03-23T01:58:58;0.00;;;0.00;;
9836;SDS011;4957;51.412;6.724;2024-03-23T02:01:25;0.00;;;0.00;;
9836;SDS011;4957;51.412;6.724;2024-03-23T02:03:51;0.00;;;0.00;;
9836;SDS011;4957;51.412;6.724;2024-03-23T02:06:17;0.00;;;0.00;;
9836;SDS011;4957;51.412;6.724;2024-03-23T02:08:43;0.00;;;0.00;;
9836;SDS011;4957;51.412;6.724;2024-03-23T02:11:09;0.00;;;0.00;;
9836;SDS011;4957;51.412;6.724;2024-03-23T02:13:35;0.00;;;0.00;;
9836;SDS011;4957;51.412;6.724;2024-03-23T02:16:00;0.03;;;0.03;;
9836;SDS011;4957;51.412;6.724;2024-03-23T02:18:26;0.00;;;0.00;;
9836;SDS011;4957;51.412;6.724;2024-03-23T02:20:52;0.10;;;0.10;;
9836;SDS011;4957;51.412;6.724;2024-03-23T02:23:18;0.00;;;0.00;;
9836;SDS011;4957;51.412;6.724;2024-03-23T02:25:44;0.00;;;0.00;;
9836;SDS011;4957;51.412;6.724;2024-03-23T02:28:10;0.00;;;0.00;;
9836;SDS011;4957;51.412;6.724;2024-03-23T02:30:36;0.00;;;0.00;;
9836;SDS011;4957;51.412;6.724;2024-03-23T02:33:02;0.07;;;0.07;;
9836;SDS011;4957;51.412;6.724;2024-03-23T02:35:28;0.00;;;0.00;;
9836;SDS011;4957;51.412;6.724;2024-03-23T02:37:53;0.00;;;0.00;;
9836;SDS011;4957;51.412;6.724;2024-03-23T02:40:21;0.00;;;0.00;;
9836;SDS011;4957;51.412;6.724;2024-03-23T02:42:49;0.00;;;0.00;;
9836;SDS011;4957;51.412;6.724;2024-03-23T02:45:14;0.00;;;0.00;;
9836;SDS011;4957;51.412;6.724;2024-03-23T02:47:40;0.00;;;0.00;;
9836;SDS011;4957;51.412;6.724;2024-03-23T02:50:06;0.00;;;0.00;;
9836;SDS011;4957;51.412;6.724;2024-03-23T02:52:33;0.07;;;0.07;;
9836;SDS011;4957;51.412;6.724;2024-03-23T02:54:59;0.00;;;0.00;;
9836;SDS011;4957;51.412;6.724;2024-03-23T02:57:26;0.00;;;0.00;;
9836;SDS011;4957;51.412;6.724;2024-03-23T02:59:53;0.00;;;0.00;;
9836;SDS011;4957;51.412;6.724;2024-03-23T03:02:18;0.00;;;0.00;;
9836;SDS011;4957;51.412;6.724;2024-03-23T03:04:45;0.00;;;0.00;;
9836;SDS011;4957;51.412;6.724;2024-03-23T03:07:10;0.03;;;0.03;;
9836;SDS011;4957;51.412;6.724;2024-03-23T03:09:36;0.00;;;0.00;;
9836;SDS011;4957;51.412;6.724;2024-03-23T03:12:04;0.00;;;0.00;;
9836;SDS011;4957;51.412;6.724;2024-03-23T03:14:30;0.00;;;0.00;;
9836;SDS011;4957;51.412;6.724;2024-03-23T03:16:56;0.00;;;0.00;;
9836;SDS011;4957;51.412;6.724;2024-03-23T03:19:21;0.00;;;0.00;;
9836;SDS011;4957;51.412;6.724;2024-03-23T03:21:50;0.00;;;0.00;;
9836;SDS011;4957;51.412;6.724;2024-03-23T03:24:16;0.00;;;0.00;;
9836;SDS011;4957;51.412;6.724;2024-03-23T03:26:42;0.00;;;0.00;;
9836;SDS011;4957;51.412;6.724;2024-03-23T03:29:08;0.00;;;0.00;;
9836;SDS011;4957;51.412;6.724;2024-03-23T03:31:34;0.00;;;0.00;;
9836;SDS011;4957;51.412;6.724;2024-03-23T03:34:00;0.00;;;0.00;;
9836;SDS011;4957;51.412;6.724;2024-03-23T03:36:25;0.00;;;0.00;;
9836;SDS011;4957;51.412;6.724;2024-03-23T03:38:51;0.00;;;0.00;;
9836;SDS011;4957;51.412;6.724;2024-03-23T03:41:18;0.00;;;0.00;;
9836;SDS011;4957;51.412;6.724;2024-03-23T03:43:44;0.07;;;0.07;;
9836;SDS011;4957;51.412;6.724;2024-03-23T03:46:09;0.10;;;0.10;;
9836;SDS011;4957;51.412;6.724;2024-03-23T03:48:36;0.00;;;0.00;;
9836;SDS011;4957;51.412;6.724;2024-03-23T03:51:02;0.00;;;0.00;;
9836;SDS011;4957;51.412;6.724;2024-03-23T03:53:28;0.00;;;0.00;;
9836;SDS011;4957;51.412;6.724;2024-03-23T03:55:54;0.00;;;0.00;;
9836;SDS011;4957;51.412;6.724;2024-03-23T03:58:19;0.00;;;0.00;;
9836;SDS011;4957;51.412;6.724;2024-03-23T04:00:45;0.00;;;0.00;;
9836;SDS011;4957;51.412;6.724;2024-03-23T04:03:11;0.00;;;0.00;;
9836;SDS011;4957;51.412;6.724;2024-03-23T04:05:36;0.00;;;0.00;;
9836;SDS011;4957;51.412;6.724;2024-03-23T04:08:03;0.10;;;0.10;;
9836;SDS011;4957;51.412;6.724;2024-03-23T04:10:29;0.00;;;0.00;;
9836;SDS011;4957;51.412;6.724;2024-03-23T04:12:55;0.60;;;0.60;;
9836;SDS011;4957;51.412;6.724;2024-03-23T04:15:21;0.07;;;0.07;;
9836;SDS011;4957;51.412;6.724;2024-03-23T04:17:46;0.00;;;0.00;;
9836;SDS011;4957;51.412;6.724;2024-03-23T04:20:12;0.10;;;0.10;;
9836;SDS011;4957;51.412;6.724;2024-03-23T04:22:41;0.00;;;0.00;;
9836;SDS011;4957;51.412;6.724;2024-03-23T04:25:08;0.00;;;0.00;;
9836;SDS011;4957;51.412;6.724;2024-03-23T04:27:35;0.00;;;0.00;;
9836;SDS011;4957;51.412;6.724;2024-03-23T04:30:02;0.00;;;0.00;;
9836;SDS011;4957;51.412;6.724;2024-03-23T04:32:35;0.00;;;0.00;;
9836;SDS011;4957;51.412;6.724;2024-03-23T04:35:02;0.00;;;0.00;;
9836;SDS011;4957;51.412;6.724;2024-03-23T04:37:36;0.00;;;0.00;;
9836;SDS011;4957;51.412;6.724;2024-03-23T04:40:03;0.00;;;0.00;;
9836;SDS011;4957;51.412;6.724;2024-03-23T04:42:29;0.20;;;0.20;;
9836;SDS011;4957;51.412;6.724;2024-03-23T04:44:57;0.00;;;0.00;;
9836;SDS011;4957;51.412;6.724;2024-03-23T04:47:22;0.03;;;0.03;;
9836;SDS011;4957;51.412;6.724;2024-03-23T04:49:48;0.00;;;0.00;;
9836;SDS011;4957;51.412;6.724;2024-03-23T04:52:14;0.00;;;0.00;;
9836;SDS011;4957;51.412;6.724;2024-03-23T04:54:40;0.00;;;0.00;;
9836;SDS011;4957;51.412;6.724;2024-03-23T04:57:07;0.00;;;0.00;;
9836;SDS011;4957;51.412;6.724;2024-03-23T04:59:33;0.00;;;0.00;;
9836;SDS011;4957;51.412;6.724;2024-03-23T05:01:58;0.00;;;0.00;;
9836;SDS011;4957;51.412;6.724;2024-03-23T05:04:25;0.50;;;0.50;;
9836;SDS011;4957;51.412;6.724;2024-03-23T05:06:51;0.00;;;0.00;;
9836;SDS011;4957;51.412;6.724;2024-03-23T05:09:16;0.00;;;0.00;;
9836;SDS011;4957;51.412;6.724;2024-03-23T05:11:42;0.00;;;0.00;;
9836;SDS011;4957;51.412;6.724;2024-03-23T05:14:08;0.00;;;0.00;;
9836;SDS011;4957;51.412;6.724;2024-03-23T05:16:33;0.00;;;0.00;;
9836;SDS011;4957;51.412;6.724;2024-03-23T05:18:59;0.00;;;0.00;;
9836;SDS011;4957;51.412;6.724;2024-03-23T05:21:25;0.00;;;0.00;;
9836;SDS011;4957;51.412;6.724;2024-03-23T05:23:51;0.00;;;0.00;;
9836;SDS011;4957;51.412;6.724;2024-03-23T05:26:19;0.00;;;0.00;;
9836;SDS011;4957;51.412;6.724;2024-03-23T05:28:45;0.00;;;0.00;;
9836;SDS011;4957;51.412;6.724;2024-03-23T05:31:11;0.00;;;0.00;;
9836;SDS011;4957;51.412;6.724;2024-03-23T05:33:36;0.00;;;0.00;;
9836;SDS011;4957;51.412;6.724;2024-03-23T05:36:03;0.00;;;0.00;;
9836;SDS011;4957;51.412;6.724;2024-03-23T05:38:29;0.00;;;0.00;;
9836;SDS011;4957;51.412;6.724;2024-03-23T05:40:55;0.00;;;0.00;;
9836;SDS011;4957;51.412;6.724;2024-03-23T05:43:25;0.00;;;0.00;;
9836;SDS011;4957;51.412;6.724;2024-03-23T05:45:55;0.00;;;0.00;;
9836;SDS011;4957;51.412;6.724;2024-03-23T05:48:21;0.00;;;0.00;;
9836;SDS011;4957;51.412;6.724;2024-03-23T05:50:47;0.00;;;0.00;;
9836;SDS011;4957;51.412;6.724;2024-03-23T05:53:14;0.00;;;0.00;;
9836;SDS011;4957;51.412;6.724;2024-03-23T05:55:40;0.00;;;0.00;;
9836;SDS011;4957;51.412;6.724;2024-03-23T05:58:06;0.53;;;0.20;;
9836;SDS011;4957;51.412;6.724;2024-03-23T06:00:32;0.00;;;0.00;;
9836;SDS011;4957;51.412;6.724;2024-03-23T06:02:57;0.00;;;0.00;;
9836;SDS011;4957;51.412;6.724;2024-03-23T06:05:23;0.00;;;0.00;;
9836;SDS011;4957;51.412;6.724;2024-03-23T06:07:49;0.00;;;0.00;;
9836;SDS011;4957;51.412;6.724;2024-03-23T06:10:15;0.00;;;0.00;;
9836;SDS011;4957;51.412;6.724;2024-03-23T06:12:41;0.00;;;0.00;;
9836;SDS011;4957;51.412;6.724;2024-03-23T06:15:07;0.00;;;0.00;;
9836;SDS011;4957;51.412;6.724;2024-03-23T06:17:36;0.10;;;0.10;;
9836;SDS011;4957;51.412;6.724;2024-03-23T06:20:02;0.00;;;0.00;;
9836;SDS011;4957;51.412;6.724;2024-03-23T06:22:28;0.00;;;0.00;;
9836;SDS011;4957;51.412;6.724;2024-03-23T06:24:54;0.03;;;0.03;;
9836;SDS011;4957;51.412;6.724;2024-03-23T06:27:19;0.00;;;0.00;;
9836;SDS011;4957;51.412;6.724;2024-03-23T06:29:45;0.00;;;0.00;;
9836;SDS011;4957;51.412;6.724;2024-03-23T06:32:11;0.00;;;0.00;;
9836;SDS011;4957;51.412;6.724;2024-03-23T06:34:36;0.10;;;0.10;;
9836;SDS011;4957;51.412;6.724;2024-03-23T06:37:02;0.00;;;0.00;;
9836;SDS011;4957;51.412;6.724;2024-03-23T06:39:28;0.00;;;0.00;;
9836;SDS011;4957;51.412;6.724;2024-03-23T06:41:54;3.50;;;1.10;;
9836;SDS011;4957;51.412;6.724;2024-03-23T06:44:21;0.00;;;0.00;;
9836;SDS011;4957;51.412;6.724;2024-03-23T06:46:47;0.00;;;0.00;;
9836;SDS011;4957;51.412;6.724;2024-03-23T06:49:14;0.00;;;0.00;;
9836;SDS011;4957;51.412;6.724;2024-03-23T06:51:40;0.00;;;0.00;;
9836;SDS011;4957;51.412;6.724;2024-03-23T06:54:06;0.00;;;0.00;;
9836;SDS011;4957;51.412;6.724;2024-03-23T06:56:32;0.00;;;0.00;;
9836;SDS011;4957;51.412;6.724;2024-03-23T06:58:58;0.00;;;0.00;;
9836;SDS011;4957;51.412;6.724;2024-03-23T07:01:24;0.00;;;0.00;;
9836;SDS011;4957;51.412;6.724;2024-03-23T07:03:50;0.07;;;0.07;;
9836;SDS011;4957;51.412;6.724;2024-03-23T07:06:15;0.00;;;0.00;;
9836;SDS011;4957;51.412;6.724;2024-03-23T07:08:41;0.00;;;0.00;;
9836;SDS011;4957;51.412;6.724;2024-03-23T07:11:07;0.00;;;0.00;;
9836;SDS011;4957;51.412;6.724;2024-03-23T07:13:32;0.00;;;0.00;;
9836;SDS011;4957;51.412;6.724;2024-03-23T07:15:58;0.00;;;0.00;;
9836;SDS011;4957;51.412;6.724;2024-03-23T07:18:25;0.00;;;0.00;;
9836;SDS011;4957;51.412;6.724;2024-03-23T07:20:54;0.00;;;0.00;;
9836;SDS011;4957;51.412;6.724;2024-03-23T07:23:21;0.00;;;0.00;;
9836;SDS011;4957;51.412;6.724;2024-03-23T07:26:05;0.00;;;0.00;;
9836;SDS011;4957;51.412;6.724;2024-03-23T07:28:32;0.00;;;0.00;;
9836;SDS011;4957;51.412;6.724;2024-03-23T07:33:31;0.00;;;0.00;;
9836;SDS011;4957;51.412;6.724;2024-03-23T07:35:58;0.00;;;0.00;;
9836;SDS011;4957;51.412;6.724;2024-03-23T07:38:26;0.00;;;0.00;;
9836;SDS011;4957;51.412;6.724;2024-03-23T07:41:02;0.00;;;0.00;;
9836;SDS011;4957;51.412;6.724;2024-03-23T07:43:38;0.10;;;0.10;;
9836;SDS011;4957;51.412;6.724;2024-03-23T07:46:04;0.10;;;0.10;;
9836;SDS011;4957;51.412;6.724;2024-03-23T07:48:30;0.00;;;0.00;;
9836;SDS011;4957;51.412;6.724;2024-03-23T07:51:02;0.00;;;0.00;;
9836;SDS011;4957;51.412;6.724;2024-03-23T07:53:29;0.00;;;0.00;;
9836;SDS011;4957;51.412;6.724;2024-03-23T07:56:05;0.00;;;0.00;;
9836;SDS011;4957;51.412;6.724;2024-03-23T07:58:32;0.00;;;0.00;;
9836;SDS011;4957;51.412;6.724;2024-03-23T08:01:11;0.00;;;0.00;;
9836;SDS011;4957;51.412;6.724;2024-03-23T08:03:40;0.00;;;0.00;;
9836;SDS011;4957;51.412;6.724;2024-03-23T08:06:14;0.00;;;0.00;;
9836;SDS011;4957;51.412;6.724;2024-03-23T08:08:41;0.00;;;0.00;;
9836;SDS011;4957;51.412;6.724;2024-03-23T08:11:09;0.00;;;0.00;;
9836;SDS011;4957;51.412;6.724;2024-03-23T08:13:35;0.00;;;0.00;;
9836;SDS011;4957;51.412;6.724;2024-03-23T08:16:02;0.00;;;0.00;;
9836;SDS011;4957;51.412;6.724;2024-03-23T08:18:30;0.00;;;0.00;;
9836;SDS011;4957;51.412;6.724;2024-03-23T08:23:27;0.00;;;0.00;;
9836;SDS011;4957;51.412;6.724;2024-03-23T08:25:57;0.00;;;0.00;;
9836;SDS011;4957;51.412;6.724;2024-03-23T08:28:24;0.00;;;0.00;;
9836;SDS011;4957;51.412;6.724;2024-03-23T08:30:50;0.00;;;0.00;;
9836;SDS011;4957;51.412;6.724;2024-03-23T08:33:17;0.00;;;0.00;;
9836;SDS011;4957;51.412;6.724;2024-03-23T08:35:43;0.00;;;0.00;;
9836;SDS011;4957;51.412;6.724;2024-03-23T08:38:23;0.00;;;0.00;;
9836;SDS011;4957;51.412;6.724;2024-03-23T08:40:56;0.00;;;0.00;;
9836;SDS011;4957;51.412;6.724;2024-03-23T08:43:30;0.00;;;0.00;;
9836;SDS011;4957;51.412;6.724;2024-03-23T08:46:06;0.00;;;0.00;;
9836;SDS011;4957;51.412;6.724;2024-03-23T08:48:42;0.00;;;0.00;;
9836;SDS011;4957;51.412;6.724;2024-03-23T08:51:10;0.00;;;0.00;;
9836;SDS011;4957;51.412;6.724;2024-03-23T08:53:37;0.00;;;0.00;;
9836;SDS011;4957;51.412;6.724;2024-03-23T08:56:04;0.00;;;0.00;;
9836;SDS011;4957;51.412;6.724;2024-03-23T08:58:31;0.00;;;0.00;;
9836;SDS011;4957;51.412;6.724;2024-03-23T09:03:30;0.00;;;0.00;;
9836;SDS011;4957;51.412;6.724;2024-03-23T09:05:56;0.00;;;0.00;;
9836;SDS011;4957;51.412;6.724;2024-03-23T09:08:23;0.00;;;0.00;;
9836;SDS011;4957;51.412;6.724;2024-03-23T09:10:49;0.00;;;0.00;;
9836;SDS011;4957;51.412;6.724;2024-03-23T09:13:15;0.00;;;0.00;;
9836;SDS011;4957;51.412;6.724;2024-03-23T09:15:48;0.00;;;0.00;;
9836;SDS011;4957;51.412;6.724;2024-03-23T09:18:15;0.00;;;0.00;;
9836;SDS011;4957;51.412;6.724;2024-03-23T09:20:41;0.00;;;0.00;;
9836;SDS011;4957;51.412;6.724;2024-03-23T09:23:07;0.00;;;0.00;;
9836;SDS011;4957;51.412;6.724;2024-03-23T09:25:36;0.00;;;0.00;;
9836;SDS011;4957;51.412;6.724;2024-03-23T09:28:03;0.00;;;0.00;;
9836;SDS011;4957;51.412;6.724;2024-03-23T09:30:30;0.00;;;0.00;;
9836;SDS011;4957;51.412;6.724;2024-03-23T09:32:56;0.00;;;0.00;;
9836;SDS011;4957;51.412;6.724;2024-03-23T09:35:22;0.10;;;0.10;;
9836;SDS011;4957;51.412;6.724;2024-03-23T09:37:48;0.00;;;0.00;;
9836;SDS011;4957;51.412;6.724;2024-03-23T09:40:14;0.00;;;0.00;;
9836;SDS011;4957;51.412;6.724;2024-03-23T09:42:39;0.00;;;0.00;;
9836;SDS011;4957;51.412;6.724;2024-03-23T09:45:13;0.00;;;0.00;;
9836;SDS011;4957;51.412;6.724;2024-03-23T09:47:44;0.00;;;0.00;;
9836;SDS011;4957;51.412;6.724;2024-03-23T09:50:12;0.00;;;0.00;;
9836;SDS011;4957;51.412;6.724;2024-03-23T09:52:38;0.00;;;0.00;;
9836;SDS011;4957;51.412;6.724;2024-03-23T09:55:04;0.00;;;0.00;;
9836;SDS011;4957;51.412;6.724;2024-03-23T09:57:29;0.00;;;0.00;;
9836;SDS011;4957;51.412;6.724;2024-03-23T09:59:55;0.00;;;0.00;;
9836;SDS011;4957;51.412;6.724;2024-03-23T10:02:23;0.00;;;0.00;;
9836;SDS011;4957;51.412;6.724;2024-03-23T10:04:49;0.00;;;0.00;;
9836;SDS011;4957;51.412;6.724;2024-03-23T10:07:15;0.00;;;0.00;;
9836;SDS011;4957;51.412;6.724;2024-03-23T10:09:44;0.00;;;0.00;;
9836;SDS011;4957;51.412;6.724;2024-03-23T10:12:15;0.00;;;0.00;;
9836;SDS011;4957;51.412;6.724;2024-03-23T10:14:42;0.00;;;0.00;;
9836;SDS011;4957;51.412;6.724;2024-03-23T10:17:16;0.00;;;0.00;;
9836;SDS011;4957;51.412;6.724;2024-03-23T10:19:46;0.00;;;0.00;;
9836;SDS011;4957;51.412;6.724;2024-03-23T10:22:17;0.00;;;0.00;;
9836;SDS011;4957;51.412;6.724;2024-03-23T10:24:44;0.00;;;0.00;;
9836;SDS011;4957;51.412;6.724;2024-03-23T10:27:13;0.00;;;0.00;;
9836;SDS011;4957;51.412;6.724;2024-03-23T10:29:41;0.00;;;0.00;;
9836;SDS011;4957;51.412;6.724;2024-03-23T10:32:10;0.00;;;0.00;;
9836;SDS011;4957;51.412;6.724;2024-03-23T10:34:37;0.00;;;0.00;;
9836;SDS011;4957;51.412;6.724;2024-03-23T10:37:03;0.00;;;0.00;;
9836;SDS011;4957;51.412;6.724;2024-03-23T10:39:30;0.00;;;0.00;;
9836;SDS011;4957;51.412;6.724;2024-03-23T10:42:00;0.07;;;0.07;;
9836;SDS011;4957;51.412;6.724;2024-03-23T10:44:30;0.00;;;0.00;;
9836;SDS011;4957;51.412;6.724;2024-03-23T10:46:57;0.00;;;0.00;;
9836;SDS011;4957;51.412;6.724;2024-03-23T10:49:26;0.00;;;0.00;;
9836;SDS011;4957;51.412;6.724;2024-03-23T10:51:55;0.00;;;0.00;;
9836;SDS011;4957;51.412;6.724;2024-03-23T10:54:31;0.00;;;0.00;;
9836;SDS011;4957;51.412;6.724;2024-03-23T10:59:32;0.00;;;0.00;;
9836;SDS011;4957;51.412;6.724;2024-03-23T11:02:01;0.00;;;0.00;;
9836;SDS011;4957;51.412;6.724;2024-03-23T11:04:38;0.00;;;0.00;;
9836;SDS011;4957;51.412;6.724;2024-03-23T11:07:46;0.00;;;0.00;;
9836;SDS011;4957;51.412;6.724;2024-03-23T11:09:53;0.00;;;0.00;;
9836;SDS011;4957;51.412;6.724;2024-03-23T11:14:51;0.00;;;0.00;;
9836;SDS011;4957;51.412;6.724;2024-03-23T11:17:30;0.00;;;0.00;;
9836;SDS011;4957;51.412;6.724;2024-03-23T11:19:57;0.00;;;0.00;;
9836;SDS011;4957;51.412;6.724;2024-03-23T11:27:51;0.10;;;0.10;;
9836;SDS011;4957;51.412;6.724;2024-03-23T11:30:22;0.00;;;0.00;;
9836;SDS011;4957;51.412;6.724;2024-03-23T11:32:53;0.00;;;0.00;;
9836;SDS011;4957;51.412;6.724;2024-03-23T11:38:04;0.00;;;0.00;;
9836;SDS011;4957;51.412;6.724;2024-03-23T11:40:35;0.00;;;0.00;;
9836;SDS011;4957;51.412;6.724;2024-03-23T11:43:03;0.00;;;0.00;;
9836;SDS011;4957;51.412;6.724;2024-03-23T11:45:39;0.00;;;0.00;;
9836;SDS011;4957;51.412;6.724;2024-03-23T11:50:36;0.00;;;0.00;;
9836;SDS011;4957;51.412;6.724;2024-03-23T11:53:11;0.00;;;0.00;;
9836;SDS011;4957;51.412;6.724;2024-03-23T11:58:16;0.00;;;0.00;;
9836;SDS011;4957;51.412;6.724;2024-03-23T12:00:43;0.00;;;0.00;;
9836;SDS011;4957;51.412;6.724;2024-03-23T12:03:16;0.00;;;0.00;;
9836;SDS011;4957;51.412;6.724;2024-03-23T12:05:47;0.00;;;0.00;;
9836;SDS011;4957;51.412;6.724;2024-03-23T12:08:24;0.00;;;0.00;;
9836;SDS011;4957;51.412;6.724;2024-03-23T12:11:13;0.00;;;0.00;;
9836;SDS011;4957;51.412;6.724;2024-03-23T12:13:41;0.00;;;0.00;;
9836;SDS011;4957;51.412;6.724;2024-03-23T12:16:18;0.00;;;0.00;;
9836;SDS011;4957;51.412;6.724;2024-03-23T12:18:45;0.00;;;0.00;;
9836;SDS011;4957;51.412;6.724;2024-03-23T12:21:16;0.00;;;0.00;;
9836;SDS011;4957;51.412;6.724;2024-03-23T12:23:42;0.00;;;0.00;;
9836;SDS011;4957;51.412;6.724;2024-03-23T12:26:10;0.00;;;0.00;;
9836;SDS011;4957;51.412;6.724;2024-03-23T12:28:37;0.00;;;0.00;;
9836;SDS011;4957;51.412;6.724;2024-03-23T12:31:03;0.00;;;0.00;;
9836;SDS011;4957;51.412;6.724;2024-03-23T12:33:29;0.00;;;0.00;;
9836;SDS011;4957;51.412;6.724;2024-03-23T12:35:55;0.00;;;0.00;;
9836;SDS011;4957;51.412;6.724;2024-03-23T12:38:20;0.00;;;0.00;;
9836;SDS011;4957;51.412;6.724;2024-03-23T12:40:46;0.00;;;0.00;;
9836;SDS011;4957;51.412;6.724;2024-03-23T12:43:13;0.00;;;0.00;;
9836;SDS011;4957;51.412;6.724;2024-03-23T12:45:39;0.00;;;0.00;;
9836;SDS011;4957;51.412;6.724;2024-03-23T12:48:05;0.00;;;0.00;;
9836;SDS011;4957;51.412;6.724;2024-03-23T12:50:32;0.00;;;0.00;;
9836;SDS011;4957;51.412;6.724;2024-03-23T12:52:57;0.00;;;0.00;;
9836;SDS011;4957;51.412;6.724;2024-03-23T12:55:23;0.00;;;0.00;;
9836;SDS011;4957;51.412;6.724;2024-03-23T12:57:49;0.00;;;0.00;;
9836;SDS011;4957;51.412;6.724;2024-03-23T13:00:15;0.00;;;0.00;;
9836;SDS011;4957;51.412;6.724;2024-03-23T13:02:42;0.00;;;0.00;;
9836;SDS011;4957;51.412;6.724;2024-03-23T13:05:08;0.00;;;0.00;;
9836;SDS011;4957;51.412;6.724;2024-03-23T13:07:36;0.00;;;0.00;;
9836;SDS011;4957;51.412;6.724;2024-03-23T13:10:03;0.00;;;0.00;;
9836;SDS011;4957;51.412;6.724;2024-03-23T13:12:30;0.00;;;0.00;;
9836;SDS011;4957;51.412;6.724;2024-03-23T13:14:56;0.00;;;0.00;;
9836;SDS011;4957;51.412;6.724;2024-03-23T13:17:22;0.00;;;0.00;;
9836;SDS011;4957;51.412;6.724;2024-03-23T13:19:47;0.00;;;0.00;;
9836;SDS011;4957;51.412;6.724;2024-03-23T13:22:13;0.00;;;0.00;;
9836;SDS011;4957;51.412;6.724;2024-03-23T13:24:39;0.00;;;0.00;;
9836;SDS011;4957;51.412;6.724;2024-03-23T13:27:05;5.97;;;1.30;;
9836;SDS011;4957;51.412;6.724;2024-03-23T13:29:32;5.17;;;1.20;;
9836;SDS011;4957;51.412;6.724;2024-03-23T13:31:59;1.43;;;0.93;;
9836;SDS011;4957;51.412;6.724;2024-03-23T13:34:25;3.97;;;1.00;;
9836;SDS011;4957;51.412;6.724;2024-03-23T13:36:51;1.43;;;1.00;;
9836;SDS011;4957;51.412;6.724;2024-03-23T13:39:17;2.47;;;0.80;;
9836;SDS011;4957;51.412;6.724;2024-03-23T13:41:43;4.83;;;1.00;;
9836;SDS011;4957;51.412;6.724;2024-03-23T13:44:10;1.00;;;0.57;;
9836;SDS011;4957;51.412;6.724;2024-03-23T13:46:40;1.00;;;0.83;;
9836;SDS011;4957;51.412;6.724;2024-03-23T13:49:33;3.73;;;1.00;;
9836;SDS011;4957;51.412;6.724;2024-03-23T13:51:59;1.97;;;0.73;;
9836;SDS011;4957;51.412;6.724;2024-03-23T13:54:25;5.20;;;1.10;;
9836;SDS011;4957;51.412;6.724;2024-03-23T13:56:52;4.20;;;0.70;;
9836;SDS011;4957;51.412;6.724;2024-03-23T13:59:19;3.07;;;0.90;;
9836;SDS011;4957;51.412;6.724;2024-03-23T14:01:46;4.67;;;1.30;;
9836;SDS011;4957;51.412;6.724;2024-03-23T14:04:12;2.40;;;0.70;;
9836;SDS011;4957;51.412;6.724;2024-03-23T14:06:38;3.07;;;0.80;;
9836;SDS011;4957;51.412;6.724;2024-03-23T14:09:04;3.87;;;1.20;;
9836;SDS011;4957;51.412;6.724;2024-03-23T14:11:34;1.53;;;0.90;;
9836;SDS011;4957;51.412;6.724;2024-03-23T14:14:01;3.37;;;1.10;;
9836;SDS011;4957;51.412;6.724;2024-03-23T14:16:28;2.90;;;1.10;;
9836;SDS011;4957;51.412;6.724;2024-03-23T14:18:55;3.60;;;0.83;;
9836;SDS011;4957;51.412;6.724;2024-03-23T14:21:20;4.03;;;0.90;;
9836;SDS011;4957;51.412;6.724;2024-03-23T14:23:46;3.50;;;1.00;;
9836;SDS011;4957;51.412;6.724;2024-03-23T14:26:12;2.50;;;1.17;;
9836;SDS011;4957;51.412;6.724;2024-03-23T14:28:37;1.57;;;0.77;;
9836;SDS011;4957;51.412;6.724;2024-03-23T14:31:03;3.67;;;1.00;;
9836;SDS011;4957;51.412;6.724;2024-03-23T14:33:38;1.33;;;0.87;;
9836;SDS011;4957;51.412;6.724;2024-03-23T14:36:10;2.90;;;1.17;;
9836;SDS011;4957;51.412;6.724;2024-03-23T14:38:36;5.30;;;1.10;;
9836;SDS011;4957;51.412;6.724;2024-03-23T14:41:02;2.70;;;0.83;;
9836;SDS011;4957;51.412;6.724;2024-03-23T14:43:29;2.77;;;1.00;;
9836;SDS011;4957;51.412;6.724;2024-03-23T14:46:11;2.23;;;0.73;;
9836;SDS011;4957;51.412;6.724;2024-03-23T14:48:37;1.97;;;1.17;;
9836;SDS011;4957;51.412;6.724;2024-03-23T14:51:04;3.17;;;0.90;;
9836;SDS011;4957;51.412;6.724;2024-03-23T14:53:31;2.93;;;1.00;;
9836;SDS011;4957;51.412;6.724;2024-03-23T14:56:01;1.93;;;0.80;;
9836;SDS011;4957;51.412;6.724;2024-03-23T14:58:28;5.63;;;1.30;;
9836;SDS011;4957;51.412;6.724;2024-03-23T15:01:04;2.93;;;1.50;;
9836;SDS011;4957;51.412;6.724;2024-03-23T15:03:39;1.80;;;1.03;;
9836;SDS011;4957;51.412;6.724;2024-03-23T15:06:05;3.83;;;1.40;;
9836;SDS011;4957;51.412;6.724;2024-03-23T15:08:31;1.77;;;0.97;;
9836;SDS011;4957;51.412;6.724;2024-03-23T15:11:00;3.47;;;1.17;;
9836;SDS011;4957;51.412;6.724;2024-03-23T15:13:31;4.47;;;1.10;;
9836;SDS011;4957;51.412;6.724;2024-03-23T15:16:00;4.40;;;1.00;;
9836;SDS011;4957;51.412;6.724;2024-03-23T15:18:28;2.80;;;0.90;;
9836;SDS011;4957;51.412;6.724;2024-03-23T15:20:55;3.17;;;1.27;;
9836;SDS011;4957;51.412;6.724;2024-03-23T15:23:22;2.87;;;1.10;;
9836;SDS011;4957;51.412;6.724;2024-03-23T15:26:21;4.70;;;1.20;;
9836;SDS011;4957;51.412;6.724;2024-03-23T15:28:41;7.20;;;1.20;;
9836;SDS011;4957;51.412;6.724;2024-03-23T15:31:27;4.57;;;1.00;;
9836;SDS011;4957;51.412;6.724;2024-03-23T15:33:54;2.23;;;0.90;;
9836;SDS011;4957;51.412;6.724;2024-03-23T15:36:19;1.80;;;0.87;;
9836;SDS011;4957;51.412;6.724;2024-03-23T15:38:45;2.77;;;1.30;;
9836;SDS011;4957;51.412;6.724;2024-03-23T15:41:11;4.47;;;1.20;;
9836;SDS011;4957;51.412;6.724;2024-03-23T15:43:37;2.87;;;1.20;;
9836;SDS011;4957;51.412;6.724;2024-03-23T15:46:04;5.07;;;1.17;;
9836;SDS011;4957;51.412;6.724;2024-03-23T15:48:35;3.10;;;1.10;;
9836;SDS011;4957;51.412;6.724;2024-03-23T15:51:02;2.43;;;1.17;;
9836;SDS011;4957;51.412;6.724;2024-03-23T15:53:31;3.40;;;1.30;;
9836;SDS011;4957;51.412;6.724;2024-03-23T15:55:57;2.57;;;1.03;;
9836;SDS011;4957;51.412;6.724;2024-03-23T15:58:28;3.17;;;0.80;;
9836;SDS011;4957;51.412;6.724;2024-03-23T16:00:55;3.97;;;1.50;;
9836;SDS011;4957;51.412;6.724;2024-03-23T16:03:21;4.70;;;1.20;;
9836;SDS011;4957;51.412;6.724;2024-03-23T16:05:53;3.63;;;1.30;;
9836;SDS011;4957;51.412;6.724;2024-03-23T16:08:20;2.67;;;1.10;;
9836;SDS011;4957;51.412;6.724;2024-03-23T16:10:46;2.37;;;1.00;;
9836;SDS011;4957;51.412;6.724;2024-03-23T16:13:12;3.93;;;1.13;;
9836;SDS011;4957;51.412;6.724;2024-03-23T16:15:38;4.03;;;0.90;;
9836;SDS011;4957;51.412;6.724;2024-03-23T16:18:03;2.47;;;1.13;;
9836;SDS011;4957;51.412;6.724;2024-03-23T16:20:29;1.10;;;0.77;;
9836;SDS011;4957;51.412;6.724;2024-03-23T16:22:57;2.67;;;0.87;;
9836;SDS011;4957;51.412;6.724;2024-03-23T16:25:22;1.63;;;0.63;;
9836;SDS011;4957;51.412;6.724;2024-03-23T16:27:49;1.77;;;0.60;;
9836;SDS011;4957;51.412;6.724;2024-03-23T16:30:14;1.47;;;0.90;;
9836;SDS011;4957;51.412;6.724;2024-03-23T16:32:40;1.63;;;0.83;;
9836;SDS011;4957;51.412;6.724;2024-03-23T16:35:06;0.47;;;0.43;;
9836;SDS011;4957;51.412;6.724;2024-03-23T16:37:35;1.03;;;0.63;;